sensor_id;sensor_type;location;lat;lon;timestamp;pressure;altitude;pressure_sealevel;temperature;humidity
11525;BME280;5819;49.648;8.330;2022-11-04T00:00:19;99187.38;;;10.51;100.00
11525;BME280;5819;49.648;8.330;2022-11-04T00:02:55;99185.59;;;10.52;100.00
11525;BME280;5819;49.648;8.330;2022-11-04T00:05:22;99182.19;;;10.65;100.00
11525;BME280;5819;49.648;8.330;2022-11-04T00:07:50;99185.81;;;10.63;100.00
11525;BME280;5819;49.648;8.330;2022-11-04T00:10:41;99188.56;;;10.60;100.00
11525;BME280;5819;49.648;8.330;2022-11-04T00:13:27;99197.41;;;10.57;100.00
11525;BME280;5819;49.648;8.330;2022-11-04T00:15:59;99195.47;;;10.61;100.00
11525;BME280;5819;49.648;8.330;2022-11-04T00:18:45;99193.69;;;10.61;100.00
11525;BME280;5819;49.648;8.330;2022-11-04T00:21:13;99200.56;;;10.62;100.00
11525;BME280;5819;49.648;8.330;2022-11-04T00:23:58;99194.06;;;10.55;100.00
11525;BME280;5819;49.648;8.330;2022-11-04T00:26:39;99200.56;;;10.62;100.00
11525;BME280;5819;49.648;8.330;2022-11-04T00:29:25;99204.66;;;10.66;100.00
11525;BME280;5819;49.648;8.330;2022-11-04T00:31:54;99209.50;;;10.58;100.00
11525;BME280;5819;49.648;8.330;2022-11-04T00:34:39;99213.00;;;10.57;100.00
11525;BME280;5819;49.648;8.330;2022-11-04T00:37:07;99214.97;;;10.54;100.00
11525;BME280;5819;49.648;8.330;2022-11-04T00:39:34;99225.38;;;10.54;100.00
11525;BME280;5819;49.648;8.330;2022-11-04T00:42:02;99222.50;;;10.58;100.00
11525;BME280;5819;49.648;8.330;2022-11-04T00:44:30;99231.50;;;10.67;100.00
11525;BME280;5819;49.648;8.330;2022-11-04T00:46:59;99235.75;;;10.68;100.00
11525;BME280;5819;49.648;8.330;2022-11-04T00:49:27;99251.84;;;10.74;100.00
11525;BME280;5819;49.648;8.330;2022-11-04T00:51:55;99267.72;;;10.70;100.00
11525;BME280;5819;49.648;8.330;2022-11-04T00:54:23;99274.75;;;10.68;100.00
11525;BME280;5819;49.648;8.330;2022-11-04T00:56:50;99268.75;;;10.82;100.00
11525;BME280;5819;49.648;8.330;2022-11-04T00:59:19;99277.84;;;10.89;100.00
11525;BME280;5819;49.648;8.330;2022-11-04T01:01:47;99281.09;;;10.78;100.00
11525;BME280;5819;49.648;8.330;2022-11-04T01:04:16;99292.88;;;10.69;100.00
11525;BME280;5819;49.648;8.330;2022-11-04T01:06:44;99296.53;;;10.67;100.00
11525;BME280;5819;49.648;8.330;2022-11-04T01:09:12;99290.94;;;10.73;100.00
11525;BME280;5819;49.648;8.330;2022-11-04T01:11:40;99284.63;;;10.63;100.00
11525;BME280;5819;49.648;8.330;2022-11-04T01:14:08;99291.84;;;10.72;100.00
11525;BME280;5819;49.648;8.330;2022-11-04T01:16:36;99299.78;;;10.70;100.00
11525;BME280;5819;49.648;8.330;2022-11-04T01:19:03;99299.19;;;10.79;100.00
11525;BME280;5819;49.648;8.330;2022-11-04T01:21:33;99308.97;;;10.76;100.00
11525;BME280;5819;49.648;8.330;2022-11-04T01:24:01;99307.56;;;10.85;100.00
11525;BME280;5819;49.648;8.330;2022-11-04T01:26:29;99312.97;;;10.82;100.00
11525;BME280;5819;49.648;8.330;2022-11-04T01:28:57;99327.81;;;10.65;100.00
11525;BME280;5819;49.648;8.330;2022-11-04T01:31:27;99327.72;;;10.67;100.00
11525;BME280;5819;49.648;8.330;2022-11-04T01:33:56;99336.34;;;10.67;100.00
11525;BME280;5819;49.648;8.330;2022-11-04T01:36:25;99338.03;;;10.68;100.00
11525;BME280;5819;49.648;8.330;2022-11-04T01:38:55;99338.88;;;10.69;100.00
11525;BME280;5819;49.648;8.330;2022-11-04T01:41:25;99344.72;;;10.72;100.00
11525;BME280;5819;49.648;8.330;2022-11-04T01:43:54;99347.31;;;10.72;100.00
11525;BME280;5819;49.648;8.330;2022-11-04T01:46:29;99346.88;;;10.80;100.00
11525;BME280;5819;49.648;8.330;2022-11-04T01:49:04;99349.19;;;10.70;100.00
11525;BME280;5819;49.648;8.330;2022-11-04T01:51:35;99351.22;;;10.79;100.00
11525;BME280;5819;49.648;8.330;2022-11-04T01:54:07;99354.19;;;10.73;100.00
11525;BME280;5819;49.648;8.330;2022-11-04T01:56:38;99350.84;;;10.71;100.00
11525;BME280;5819;49.648;8.330;2022-11-04T01:59:10;99356.34;;;10.67;100.00
11525;BME280;5819;49.648;8.330;2022-11-04T02:01:39;99354.09;;;10.61;100.00
11525;BME280;5819;49.648;8.330;2022-11-04T02:04:08;99360.38;;;10.57;100.00
11525;BME280;5819;49.648;8.330;2022-11-04T02:06:56;99359.09;;;10.64;100.00
11525;BME280;5819;49.648;8.330;2022-11-04T02:09:27;99357.06;;;10.55;100.00
11525;BME280;5819;49.648;8.330;2022-11-04T02:11:57;99371.41;;;10.46;100.00
11525;BME280;5819;49.648;8.330;2022-11-04T02:14:43;99367.72;;;10.50;100.00
11525;BME280;5819;49.648;8.330;2022-11-04T02:17:25;99377.16;;;10.51;100.00
11525;BME280;5819;49.648;8.330;2022-11-04T02:20:07;99378.06;;;10.66;100.00
11525;BME280;5819;49.648;8.330;2022-11-04T02:23:02;99382.16;;;10.70;100.00
11525;BME280;5819;49.648;8.330;2022-11-04T02:25:55;99384.84;;;10.68;100.00
11525;BME280;5819;49.648;8.330;2022-11-04T02:29:03;99401.81;;;10.60;100.00
11525;BME280;5819;49.648;8.330;2022-11-04T02:31:37;99395.03;;;10.57;100.00
11525;BME280;5819;49.648;8.330;2022-11-04T02:34:13;99402.56;;;10.62;100.00
11525;BME280;5819;49.648;8.330;2022-11-04T02:36:48;99414.47;;;10.66;100.00
11525;BME280;5819;49.648;8.330;2022-11-04T02:39:33;99406.28;;;10.58;100.00
11525;BME280;5819;49.648;8.330;2022-11-04T02:42:10;99405.78;;;10.51;100.00
11525;BME280;5819;49.648;8.330;2022-11-04T02:44:45;99404.53;;;10.58;100.00
11525;BME280;5819;49.648;8.330;2022-11-04T02:47:17;99406.72;;;10.50;100.00
11525;BME280;5819;49.648;8.330;2022-11-04T02:49:50;99408.66;;;10.47;100.00
11525;BME280;5819;49.648;8.330;2022-11-04T02:52:24;99403.88;;;10.39;100.00
11525;BME280;5819;49.648;8.330;2022-11-04T02:54:57;99401.72;;;10.31;100.00
11525;BME280;5819;49.648;8.330;2022-11-04T02:57:28;99410.88;;;10.23;100.00
11525;BME280;5819;49.648;8.330;2022-11-04T03:00:00;99415.69;;;10.15;100.00
11525;BME280;5819;49.648;8.330;2022-11-04T03:02:33;99420.44;;;10.07;100.00
11525;BME280;5819;49.648;8.330;2022-11-04T03:05:03;99425.94;;;10.01;100.00
11525;BME280;5819;49.648;8.330;2022-11-04T03:07:37;99427.88;;;9.97;100.00
11525;BME280;5819;49.648;8.330;2022-11-04T03:10:09;99441.72;;;9.98;100.00
11525;BME280;5819;49.648;8.330;2022-11-04T03:12:43;99448.66;;;9.97;100.00
11525;BME280;5819;49.648;8.330;2022-11-04T03:15:17;99441.59;;;9.99;100.00
11525;BME280;5819;49.648;8.330;2022-11-04T03:17:53;99446.22;;;9.94;100.00
11525;BME280;5819;49.648;8.330;2022-11-04T03:20:25;99438.59;;;9.91;100.00
11525;BME280;5819;49.648;8.330;2022-11-04T03:22:54;99439.19;;;9.96;100.00
11525;BME280;5819;49.648;8.330;2022-11-04T03:25:27;99448.59;;;9.99;100.00
11525;BME280;5819;49.648;8.330;2022-11-04T03:28:02;99458.81;;;10.02;100.00
11525;BME280;5819;49.648;8.330;2022-11-04T03:30:38;99453.84;;;10.13;100.00
11525;BME280;5819;49.648;8.330;2022-11-04T03:33:14;99448.00;;;10.09;100.00
11525;BME280;5819;49.648;8.330;2022-11-04T03:35:44;99449.56;;;9.96;100.00
11525;BME280;5819;49.648;8.330;2022-11-04T03:38:12;99455.25;;;9.87;100.00
11525;BME280;5819;49.648;8.330;2022-11-04T03:40:40;99457.47;;;9.95;100.00
11525;BME280;5819;49.648;8.330;2022-11-04T03:43:10;99456.19;;;9.86;100.00
11525;BME280;5819;49.648;8.330;2022-11-04T03:45:42;99460.88;;;9.79;100.00
11525;BME280;5819;49.648;8.330;2022-11-04T03:48:11;99475.78;;;9.76;100.00
11525;BME280;5819;49.648;8.330;2022-11-04T03:50:40;99474.25;;;9.72;100.00
11525;BME280;5819;49.648;8.330;2022-11-04T03:53:10;99464.94;;;9.68;100.00
11525;BME280;5819;49.648;8.330;2022-11-04T03:55:44;99467.88;;;9.62;100.00
11525;BME280;5819;49.648;8.330;2022-11-04T03:58:23;99470.72;;;9.57;100.00
11525;BME280;5819;49.648;8.330;2022-11-04T04:00:59;99469.22;;;9.53;100.00
11525;BME280;5819;49.648;8.330;2022-11-04T04:03:30;99452.97;;;9.50;100.00
11525;BME280;5819;49.648;8.330;2022-11-04T04:06:07;99448.22;;;9.40;100.00
11525;BME280;5819;49.648;8.330;2022-11-04T04:08:39;99452.13;;;9.32;100.00
11525;BME280;5819;49.648;8.330;2022-11-04T04:11:14;99453.94;;;9.14;100.00
11525;BME280;5819;49.648;8.330;2022-11-04T04:13:48;99472.47;;;9.07;100.00
11525;BME280;5819;49.648;8.330;2022-11-04T04:16:25;99453.88;;;8.99;100.00
11525;BME280;5819;49.648;8.330;2022-11-04T04:18:57;99441.59;;;9.02;100.00
11525;BME280;5819;49.648;8.330;2022-11-04T04:21:31;99442.78;;;8.95;100.00
11525;BME280;5819;49.648;8.330;2022-11-04T04:24:02;99457.91;;;8.87;100.00
11525;BME280;5819;49.648;8.330;2022-11-04T04:26:50;99451.06;;;8.86;100.00
11525;BME280;5819;49.648;8.330;2022-11-04T04:29:37;99450.13;;;8.87;100.00
11525;BME280;5819;49.648;8.330;2022-11-04T04:32:06;99455.31;;;8.87;100.00
11525;BME280;5819;49.648;8.330;2022-11-04T04:34:34;99456.69;;;8.77;100.00
11525;BME280;5819;49.648;8.330;2022-11-04T04:37:04;99442.13;;;8.74;100.00
11525;BME280;5819;49.648;8.330;2022-11-04T04:39:37;99441.28;;;8.74;100.00
11525;BME280;5819;49.648;8.330;2022-11-04T04:42:23;99442.19;;;8.73;100.00
11525;BME280;5819;49.648;8.330;2022-11-04T04:45:19;99444.19;;;8.68;100.00
11525;BME280;5819;49.648;8.330;2022-11-04T04:47:48;99435.50;;;8.69;100.00
11525;BME280;5819;49.648;8.330;2022-11-04T04:50:18;99430.59;;;8.63;100.00
11525;BME280;5819;49.648;8.330;2022-11-04T04:52:49;99447.81;;;8.46;100.00
11525;BME280;5819;49.648;8.330;2022-11-04T04:55:17;99431.56;;;8.43;100.00
11525;BME280;5819;49.648;8.330;2022-11-04T04:57:45;99426.25;;;8.46;100.00
11525;BME280;5819;49.648;8.330;2022-11-04T05:00:15;99418.94;;;8.54;100.00
11525;BME280;5819;49.648;8.330;2022-11-04T05:02:43;99417.03;;;8.58;100.00
11525;BME280;5819;49.648;8.330;2022-11-04T05:05:12;99430.91;;;8.57;100.00
11525;BME280;5819;49.648;8.330;2022-11-04T05:07:45;99422.13;;;8.59;100.00
11525;BME280;5819;49.648;8.330;2022-11-04T05:10:14;99427.88;;;8.66;100.00
11525;BME280;5819;49.648;8.330;2022-11-04T05:12:43;99439.84;;;8.68;100.00
11525;BME280;5819;49.648;8.330;2022-11-04T05:15:29;99439.38;;;8.77;100.00
11525;BME280;5819;49.648;8.330;2022-11-04T05:17:59;99441.66;;;8.83;100.00
11525;BME280;5819;49.648;8.330;2022-11-04T05:20:29;99437.72;;;8.93;100.00
11525;BME280;5819;49.648;8.330;2022-11-04T05:22:59;99435.56;;;9.02;100.00
11525;BME280;5819;49.648;8.330;2022-11-04T05:25:27;99416.34;;;9.06;100.00
11525;BME280;5819;49.648;8.330;2022-11-04T05:27:58;99422.03;;;9.12;100.00
11525;BME280;5819;49.648;8.330;2022-11-04T05:30:26;99414.94;;;9.16;100.00
11525;BME280;5819;49.648;8.330;2022-11-04T05:32:54;99399.97;;;9.21;100.00
11525;BME280;5819;49.648;8.330;2022-11-04T05:35:30;99400.03;;;9.19;100.00
11525;BME280;5819;49.648;8.330;2022-11-04T05:37:58;99400.44;;;9.12;100.00
11525;BME280;5819;49.648;8.330;2022-11-04T05:40:25;99403.59;;;9.01;100.00
11525;BME280;5819;49.648;8.330;2022-11-04T05:42:56;99402.97;;;8.96;100.00
11525;BME280;5819;49.648;8.330;2022-11-04T05:45:25;99402.53;;;9.05;100.00
11525;BME280;5819;49.648;8.330;2022-11-04T05:47:57;99396.94;;;9.13;100.00
11525;BME280;5819;49.648;8.330;2022-11-04T05:50:25;99392.59;;;9.13;100.00
11525;BME280;5819;49.648;8.330;2022-11-04T05:52:55;99390.16;;;9.10;100.00
11525;BME280;5819;49.648;8.330;2022-11-04T05:55:23;99395.47;;;9.07;100.00
11525;BME280;5819;49.648;8.330;2022-11-04T05:57:51;99398.34;;;9.03;100.00
11525;BME280;5819;49.648;8.330;2022-11-04T06:00:19;99390.63;;;9.01;100.00
11525;BME280;5819;49.648;8.330;2022-11-04T06:02:47;99395.38;;;8.93;100.00
11525;BME280;5819;49.648;8.330;2022-11-04T06:05:14;99388.25;;;8.97;100.00
11525;BME280;5819;49.648;8.330;2022-11-04T06:07:42;99398.63;;;8.97;100.00
11525;BME280;5819;49.648;8.330;2022-11-04T06:10:11;99408.28;;;8.95;100.00
11525;BME280;5819;49.648;8.330;2022-11-04T06:12:39;99410.75;;;8.96;100.00
11525;BME280;5819;49.648;8.330;2022-11-04T06:15:08;99416.97;;;8.93;100.00
11525;BME280;5819;49.648;8.330;2022-11-04T06:17:36;99428.91;;;8.96;100.00
11525;BME280;5819;49.648;8.330;2022-11-04T06:20:05;99433.13;;;8.99;100.00
11525;BME280;5819;49.648;8.330;2022-11-04T06:22:33;99435.97;;;8.94;100.00
11525;BME280;5819;49.648;8.330;2022-11-04T06:25:00;99433.38;;;8.94;100.00
11525;BME280;5819;49.648;8.330;2022-11-04T06:27:29;99436.03;;;8.92;100.00
11525;BME280;5819;49.648;8.330;2022-11-04T06:29:57;99438.69;;;8.91;100.00
11525;BME280;5819;49.648;8.330;2022-11-04T06:32:25;99437.94;;;8.89;100.00
11525;BME280;5819;49.648;8.330;2022-11-04T06:34:53;99441.22;;;8.92;100.00
11525;BME280;5819;49.648;8.330;2022-11-04T06:37:20;99435.13;;;8.93;100.00
11525;BME280;5819;49.648;8.330;2022-11-04T06:39:48;99450.75;;;8.92;100.00
11525;BME280;5819;49.648;8.330;2022-11-04T06:42:15;99450.06;;;8.88;100.00
11525;BME280;5819;49.648;8.330;2022-11-04T06:44:44;99458.53;;;8.92;100.00
11525;BME280;5819;49.648;8.330;2022-11-04T06:47:12;99464.47;;;8.94;100.00
11525;BME280;5819;49.648;8.330;2022-11-04T06:49:40;99458.22;;;8.98;100.00
11525;BME280;5819;49.648;8.330;2022-11-04T06:52:08;99462.34;;;9.02;100.00
11525;BME280;5819;49.648;8.330;2022-11-04T06:54:35;99460.50;;;9.04;100.00
11525;BME280;5819;49.648;8.330;2022-11-04T06:57:03;99450.63;;;9.11;100.00
11525;BME280;5819;49.648;8.330;2022-11-04T06:59:31;99453.94;;;9.14;100.00
11525;BME280;5819;49.648;8.330;2022-11-04T07:02:00;99455.47;;;9.18;100.00
11525;BME280;5819;49.648;8.330;2022-11-04T07:04:28;99457.72;;;9.24;100.00
11525;BME280;5819;49.648;8.330;2022-11-04T07:06:56;99457.66;;;9.26;100.00
11525;BME280;5819;49.648;8.330;2022-11-04T07:09:23;99453.31;;;9.26;100.00
11525;BME280;5819;49.648;8.330;2022-11-04T07:11:51;99461.09;;;9.26;100.00
11525;BME280;5819;49.648;8.330;2022-11-04T07:14:19;99458.25;;;9.31;100.00
11525;BME280;5819;49.648;8.330;2022-11-04T07:16:48;99460.72;;;9.34;100.00
11525;BME280;5819;49.648;8.330;2022-11-04T07:19:18;99455.41;;;9.35;100.00
11525;BME280;5819;49.648;8.330;2022-11-04T07:21:46;99462.28;;;9.36;100.00
11525;BME280;5819;49.648;8.330;2022-11-04T07:24:14;99468.09;;;9.42;100.00
11525;BME280;5819;49.648;8.330;2022-11-04T07:26:42;99469.78;;;9.43;100.00
11525;BME280;5819;49.648;8.330;2022-11-04T07:29:09;99471.44;;;9.44;100.00
11525;BME280;5819;49.648;8.330;2022-11-04T07:31:37;99473.72;;;9.50;100.00
11525;BME280;5819;49.648;8.330;2022-11-04T07:34:05;99473.50;;;9.54;100.00
11525;BME280;5819;49.648;8.330;2022-11-04T07:36:34;99474.78;;;9.63;100.00
11525;BME280;5819;49.648;8.330;2022-11-04T07:39:02;99479.13;;;9.62;100.00
11525;BME280;5819;49.648;8.330;2022-11-04T07:41:32;99489.94;;;9.70;100.00
11525;BME280;5819;49.648;8.330;2022-11-04T07:44:00;99493.94;;;9.76;100.00
11525;BME280;5819;49.648;8.330;2022-11-04T07:46:31;99485.50;;;9.72;100.00
11525;BME280;5819;49.648;8.330;2022-11-04T07:48:59;99486.94;;;9.78;100.00
11525;BME280;5819;49.648;8.330;2022-11-04T07:51:27;99494.63;;;9.79;100.00
11525;BME280;5819;49.648;8.330;2022-11-04T07:53:57;99486.84;;;9.79;100.00
11525;BME280;5819;49.648;8.330;2022-11-04T07:56:25;99485.28;;;9.93;100.00
11525;BME280;5819;49.648;8.330;2022-11-04T07:58:53;99481.16;;;9.88;100.00
11525;BME280;5819;49.648;8.330;2022-11-04T08:01:22;99486.13;;;9.93;100.00
11525;BME280;5819;49.648;8.330;2022-11-04T08:03:50;99486.13;;;9.93;100.00
11525;BME280;5819;49.648;8.330;2022-11-04T08:06:19;99484.00;;;10.00;100.00
11525;BME280;5819;49.648;8.330;2022-11-04T08:08:47;99480.44;;;10.02;100.00
11525;BME280;5819;49.648;8.330;2022-11-04T08:11:18;99472.63;;;10.02;100.00
11525;BME280;5819;49.648;8.330;2022-11-04T08:13:47;99477.47;;;10.08;100.00
11525;BME280;5819;49.648;8.330;2022-11-04T08:16:16;99473.19;;;10.07;100.00
11525;BME280;5819;49.648;8.330;2022-11-04T08:18:45;99476.63;;;10.08;100.00
11525;BME280;5819;49.648;8.330;2022-11-04T08:21:14;99478.03;;;10.15;100.00
11525;BME280;5819;49.648;8.330;2022-11-04T08:23:43;99475.69;;;10.26;100.00
11525;BME280;5819;49.648;8.330;2022-11-04T08:26:14;99475.69;;;10.26;100.00
11525;BME280;5819;49.648;8.330;2022-11-04T08:28:45;99461.09;;;10.23;100.00
11525;BME280;5819;49.648;8.330;2022-11-04T08:31:15;99470.97;;;10.32;100.00
11525;BME280;5819;49.648;8.330;2022-11-04T08:33:43;99463.44;;;10.28;100.00
11525;BME280;5819;49.648;8.330;2022-11-04T08:36:14;99463.28;;;10.31;100.00
11525;BME280;5819;49.648;8.330;2022-11-04T08:38:43;99465.94;;;10.29;100.00
11525;BME280;5819;49.648;8.330;2022-11-04T08:41:14;99453.97;;;10.27;100.00
11525;BME280;5819;49.648;8.330;2022-11-04T08:43:44;99466.03;;;10.28;100.00
11525;BME280;5819;49.648;8.330;2022-11-04T08:46:13;99458.09;;;10.31;100.00
11525;BME280;5819;49.648;8.330;2022-11-04T08:48:41;99454.63;;;10.30;100.00
11525;BME280;5819;49.648;8.330;2022-11-04T08:51:13;99455.06;;;10.39;100.00
11525;BME280;5819;49.648;8.330;2022-11-04T08:53:41;99457.72;;;10.37;100.00
11525;BME280;5819;49.648;8.330;2022-11-04T08:56:11;99469.63;;;10.41;100.00
11525;BME280;5819;49.648;8.330;2022-11-04T08:58:39;99461.56;;;10.46;100.00
11525;BME280;5819;49.648;8.330;2022-11-04T09:01:09;99466.66;;;10.47;100.00
11525;BME280;5819;49.648;8.330;2022-11-04T09:03:39;99465.75;;;10.48;100.00
11525;BME280;5819;49.648;8.330;2022-11-04T09:06:09;99469.03;;;10.52;100.00
11525;BME280;5819;49.648;8.330;2022-11-04T09:08:37;99462.66;;;10.57;100.00
11525;BME280;5819;49.648;8.330;2022-11-04T09:11:06;99466.69;;;10.63;100.00
11525;BME280;5819;49.648;8.330;2022-11-04T09:13:34;99472.94;;;10.74;100.00
11525;BME280;5819;49.648;8.330;2022-11-04T09:16:06;99468.41;;;10.78;100.00
11525;BME280;5819;49.648;8.330;2022-11-04T09:18:36;99470.16;;;10.77;100.00
11525;BME280;5819;49.648;8.330;2022-11-04T09:21:06;99472.75;;;10.77;100.00
11525;BME280;5819;49.648;8.330;2022-11-04T09:23:34;99472.06;;;10.90;100.00
11525;BME280;5819;49.648;8.330;2022-11-04T09:26:05;99470.19;;;10.92;100.00
11525;BME280;5819;49.648;8.330;2022-11-04T09:28:33;99476.44;;;11.03;100.00
11525;BME280;5819;49.648;8.330;2022-11-04T09:31:04;99474.53;;;11.07;100.00
11525;BME280;5819;49.648;8.330;2022-11-04T09:33:32;99476.16;;;11.08;100.00
11525;BME280;5819;49.648;8.330;2022-11-04T09:36:01;99484.44;;;11.00;100.00
11525;BME280;5819;49.648;8.330;2022-11-04T09:38:29;99489.56;;;11.02;100.00
11525;BME280;5819;49.648;8.330;2022-11-04T09:40:58;99495.59;;;11.02;100.00
11525;BME280;5819;49.648;8.330;2022-11-04T09:43:32;99502.00;;;10.97;100.00
11525;BME280;5819;49.648;8.330;2022-11-04T09:46:09;99496.25;;;11.06;100.00
11525;BME280;5819;49.648;8.330;2022-11-04T09:48:40;99492.38;;;11.13;100.00
11525;BME280;5819;49.648;8.330;2022-11-04T09:51:12;99490.91;;;11.23;100.00
11525;BME280;5819;49.648;8.330;2022-11-04T09:54:06;99493.53;;;11.23;100.00
11525;BME280;5819;49.648;8.330;2022-11-04T09:56:38;99490.34;;;11.32;100.00
11525;BME280;5819;49.648;8.330;2022-11-04T09:59:10;99501.81;;;11.44;100.00
11525;BME280;5819;49.648;8.330;2022-11-04T10:01:46;99492.50;;;11.40;100.00
11525;BME280;5819;49.648;8.330;2022-11-04T10:04:25;99500.88;;;11.31;100.00
11525;BME280;5819;49.648;8.330;2022-11-04T10:07:05;99508.56;;;11.32;100.00
11525;BME280;5819;49.648;8.330;2022-11-04T10:09:46;99510.19;;;11.35;100.00
11525;BME280;5819;49.648;8.330;2022-11-04T10:12:37;99523.84;;;11.38;100.00
11525;BME280;5819;49.648;8.330;2022-11-04T10:15:30;99523.94;;;11.37;100.00
11525;BME280;5819;49.648;8.330;2022-11-04T10:18:09;99523.94;;;11.37;100.00
11525;BME280;5819;49.648;8.330;2022-11-04T10:20:48;99519.94;;;11.31;100.00
11525;BME280;5819;49.648;8.330;2022-11-04T10:23:24;99519.63;;;11.21;100.00
11525;BME280;5819;49.648;8.330;2022-11-04T10:25:58;99516.94;;;11.23;100.00
11525;BME280;5819;49.648;8.330;2022-11-04T10:28:33;99514.16;;;11.26;100.00
11525;BME280;5819;49.648;8.330;2022-11-04T10:31:03;99510.72;;;11.25;100.00
11525;BME280;5819;49.648;8.330;2022-11-04T10:33:33;99504.13;;;11.34;100.00
11525;BME280;5819;49.648;8.330;2022-11-04T10:36:05;99502.25;;;11.36;100.00
11525;BME280;5819;49.648;8.330;2022-11-04T10:38:39;99494.28;;;11.39;100.00
11525;BME280;5819;49.648;8.330;2022-11-04T10:41:23;99492.22;;;11.44;100.00
11525;BME280;5819;49.648;8.330;2022-11-04T10:43:56;99484.72;;;11.54;100.00
11525;BME280;5819;49.648;8.330;2022-11-04T10:46:36;99480.44;;;11.67;100.00
11525;BME280;5819;49.648;8.330;2022-11-04T10:49:26;99480.66;;;11.78;100.00
11525;BME280;5819;49.648;8.330;2022-11-04T10:51:58;99479.31;;;11.71;100.00
11525;BME280;5819;49.648;8.330;2022-11-04T10:54:33;99480.09;;;11.73;100.00
11525;BME280;5819;49.648;8.330;2022-11-04T10:57:03;99474.53;;;11.79;100.00
11525;BME280;5819;49.648;8.330;2022-11-04T10:59:38;99482.22;;;11.81;100.00
11525;BME280;5819;49.648;8.330;2022-11-04T11:02:09;99476.00;;;11.83;100.00
11525;BME280;5819;49.648;8.330;2022-11-04T11:04:38;99472.81;;;11.92;100.00
11525;BME280;5819;49.648;8.330;2022-11-04T11:07:08;99464.34;;;11.89;100.00
11525;BME280;5819;49.648;8.330;2022-11-04T11:09:48;99471.81;;;11.95;100.00
11525;BME280;5819;49.648;8.330;2022-11-04T11:12:21;99472.41;;;12.12;100.00
11525;BME280;5819;49.648;8.330;2022-11-04T11:15:30;99464.94;;;12.20;100.00
11525;BME280;5819;49.648;8.330;2022-11-04T11:18:10;99464.66;;;12.25;100.00
11525;BME280;5819;49.648;8.330;2022-11-04T11:20:41;99474.38;;;12.36;100.00
11525;BME280;5819;49.648;8.330;2022-11-04T11:23:37;99462.09;;;12.38;100.00
11525;BME280;5819;49.648;8.330;2022-11-04T11:26:08;99469.28;;;12.34;100.00
11525;BME280;5819;49.648;8.330;2022-11-04T11:28:38;99465.84;;;12.34;100.00
11525;BME280;5819;49.648;8.330;2022-11-04T11:31:10;99463.63;;;12.28;100.00
11525;BME280;5819;49.648;8.330;2022-11-04T11:33:48;99472.97;;;12.17;100.00
11525;BME280;5819;49.648;8.330;2022-11-04T11:36:20;99472.03;;;12.18;100.00
11525;BME280;5819;49.648;8.330;2022-11-04T11:38:58;99475.97;;;12.11;100.00
11525;BME280;5819;49.648;8.330;2022-11-04T11:41:31;99465.06;;;12.05;100.00
11525;BME280;5819;49.648;8.330;2022-11-04T11:44:17;99468.06;;;11.99;100.00
11525;BME280;5819;49.648;8.330;2022-11-04T11:46:50;99467.50;;;11.94;100.00
11525;BME280;5819;49.648;8.330;2022-11-04T11:49:25;99466.47;;;11.96;100.00
11525;BME280;5819;49.648;8.330;2022-11-04T11:51:54;99466.88;;;11.90;100.00
11525;BME280;5819;49.648;8.330;2022-11-04T11:54:27;99465.94;;;11.91;100.00
11525;BME280;5819;49.648;8.330;2022-11-04T11:57:02;99465.09;;;11.91;100.00
11525;BME280;5819;49.648;8.330;2022-11-04T11:59:44;99461.00;;;11.87;100.00
11525;BME280;5819;49.648;8.330;2022-11-04T12:02:44;99464.16;;;11.92;100.00
11525;BME280;5819;49.648;8.330;2022-11-04T12:05:15;99453.72;;;11.92;100.00
11525;BME280;5819;49.648;8.330;2022-11-04T12:08:22;99465.63;;;11.96;100.00
11525;BME280;5819;49.648;8.330;2022-11-04T12:11:23;99461.09;;;11.99;100.00
11525;BME280;5819;49.648;8.330;2022-11-04T12:13:55;99455.13;;;11.97;100.00
11525;BME280;5819;49.648;8.330;2022-11-04T12:16:32;99450.41;;;11.90;100.00
11525;BME280;5819;49.648;8.330;2022-11-04T12:19:17;99454.97;;;11.86;100.00
11525;BME280;5819;49.648;8.330;2022-11-04T12:21:56;99450.88;;;11.82;100.00
11525;BME280;5819;49.648;8.330;2022-11-04T12:24:29;99446.59;;;11.81;100.00
11525;BME280;5819;49.648;8.330;2022-11-04T12:27:07;99450.31;;;11.77;100.00
11525;BME280;5819;49.648;8.330;2022-11-04T12:29:51;99453.19;;;11.72;100.00
11525;BME280;5819;49.648;8.330;2022-11-04T12:32:26;99463.63;;;11.72;100.00
11525;BME280;5819;49.648;8.330;2022-11-04T12:35:05;99456.38;;;11.78;100.00
11525;BME280;5819;49.648;8.330;2022-11-04T12:37:45;99453.94;;;11.75;100.00
11525;BME280;5819;49.648;8.330;2022-11-04T12:40:19;99461.94;;;11.71;100.00
11525;BME280;5819;49.648;8.330;2022-11-04T12:42:59;99454.47;;;11.80;100.00
11525;BME280;5819;49.648;8.330;2022-11-04T12:45:41;99452.91;;;11.77;100.00
11525;BME280;5819;49.648;8.330;2022-11-04T12:48:26;99460.25;;;11.99;100.00
11525;BME280;5819;49.648;8.330;2022-11-04T12:51:02;99459.38;;;12.12;100.00
11525;BME280;5819;49.648;8.330;2022-11-04T12:53:51;99460.06;;;12.29;100.00
11525;BME280;5819;49.648;8.330;2022-11-04T12:56:26;99461.34;;;12.36;100.00
11525;BME280;5819;49.648;8.330;2022-11-04T12:59:19;99461.25;;;12.37;100.00
11525;BME280;5819;49.648;8.330;2022-11-04T13:01:56;99458.56;;;12.39;100.00
11525;BME280;5819;49.648;8.330;2022-11-04T13:04:30;99461.19;;;12.39;100.00
11525;BME280;5819;49.648;8.330;2022-11-04T13:07:35;99462.69;;;12.29;100.00
11525;BME280;5819;49.648;8.330;2022-11-04T13:10:14;99452.72;;;12.35;100.00
11525;BME280;5819;49.648;8.330;2022-11-04T13:12:46;99463.16;;;12.35;100.00
11525;BME280;5819;49.648;8.330;2022-11-04T13:15:19;99460.75;;;12.18;100.00
11525;BME280;5819;49.648;8.330;2022-11-04T13:17:53;99474.28;;;11.96;100.00
11525;BME280;5819;49.648;8.330;2022-11-04T13:20:28;99479.03;;;12.04;100.00
11525;BME280;5819;49.648;8.330;2022-11-04T13:23:01;99487.16;;;11.85;100.00
11525;BME280;5819;49.648;8.330;2022-11-04T13:25:36;99489.97;;;11.82;100.00
11525;BME280;5819;49.648;8.330;2022-11-04T13:28:09;99487.44;;;11.95;100.00
11525;BME280;5819;49.648;8.330;2022-11-04T13:30:45;99483.22;;;11.92;100.00
11525;BME280;5819;49.648;8.330;2022-11-04T13:33:24;99481.75;;;11.88;100.00
11525;BME280;5819;49.648;8.330;2022-11-04T13:35:58;99490.41;;;11.89;100.00